Česky Dansk Deutsch English Español Suomi Français Magyar Italiano Nederlands norsk Polski Português svenska Türkçe

 

Het Weer

Yacuiba (Bolivië)

20:00, 22 augustus 2016 (GMT)

NWNNE
WE
SWSSE
Home            
Yacuiba Tartagal Aerodrome Villamontes Tarija Oran Aerodrome La Quiaca Observatorio Camiri Nueva Asuncion Rivadavia Jujuy Aerodrome Mariscal Estigarribia Potosi Sucre Salta Aerodrome Las Lomitas Santa Cruz / El Trompillo Viru-Viru San Jose De Chiquitos Tucuman Aerodrome Oruro Cochabamba Robore Presidencia Roque Saenz Pena Aerodrome

Om een weerknop op uw website of weblog te plaatsen, copieer onderstaande code en plak die in uw pagina. In het eerste vakje staat HTML-code, in het tweede vakje UBB-code.


Add to Google

Details

Wind speed:3 bf, 8 kn, 4.1 m/s, 9.2 miles/h, 14.8 km/h
Wind direction:NE, 040°
Visibility:Greater than 10000 m, 10 km, 32800 ft, 6.2 miles
Temperature:25°C, 77°F
Gefühlte Temperatur:25°C, 77°F
Dew-point:1°C, 34°F
Atmospheric pressure:1019 hPa, 764.3 mmHg, 30.09 inHg, 1.006 atm
Relative humidity:20.7 %
METAR:SLYA 222000Z 04008KT 9999 NSC 25/01 Q1019

Snelkoppelingen

Actuele weersinformatie van de hele wereld. Voeg locaties toe met het plus (+) symbool. Deze snelkoppelingen kunnen worden toegevoegd aan Google.

Lid van de Technetium groep

website free tracking
StatCounter NetStat W3C Validator

29-11-2020 12:23:02
astro.technetium.be money.technetium.be phote.technetium.be tafeltennistafel.technetium.be www.ligfiets.net